Time;durP1;ratioP1;P1;durP2;ratioP2;P2;SDS_P1;SDS_P2;PMS_P1;PMS_P2;Temp;Humidity;BMP_temperature;BMP_pressure;BME280_temperature;BME280_humidity;BME280_pressure;Samples;Min_cycle;Max_cycle;Signal;HPM_P1;HPM_P2
2023/03/31 00:01:41;;;;;;;2.53;1.50;;;11.30;99.90;;;;;;4951454;28;20720;-71
2023/03/31 00:04:12;;;;;;;4.70;2.00;;;11.30;99.90;;;;;;4950656;28;20590;-70
2023/03/31 00:06:43;;;;;;;3.40;1.70;;;11.30;99.90;;;;;;4951020;28;20239;-70
2023/03/31 00:09:13;;;;;;;2.97;1.87;;;11.30;99.90;;;;;;4950158;28;20733;-71
2023/03/31 00:11:40;;;;;;;2.60;1.40;;;11.20;99.90;;;;;;4955159;28;20807;-70
2023/03/31 00:14:08;;;;;;;3.33;1.47;;;11.20;99.90;;;;;;4955910;28;20263;-70
2023/03/31 00:16:35;;;;;;;4.00;1.40;;;11.20;99.90;;;;;;4949895;28;20346;-71
2023/03/31 00:19:02;;;;;;;5.13;1.37;;;11.20;99.90;;;;;;4942433;28;20271;-70
2023/03/31 00:21:32;;;;;;;4.20;1.73;;;11.10;99.90;;;;;;4931101;29;20961;-70
2023/03/31 00:24:01;;;;;;;3.43;1.50;;;11.10;99.90;;;;;;4930930;29;20208;-70
2023/03/31 00:26:30;;;;;;;4.70;1.60;;;11.10;99.90;;;;;;4928157;29;20242;-70
2023/03/31 00:28:58;;;;;;;4.83;1.50;;;11.20;99.90;;;;;;4930613;29;20334;-71
2023/03/31 00:31:27;;;;;;;3.43;1.50;;;11.20;99.90;;;;;;4930032;29;20689;-71
2023/03/31 00:33:55;;;;;;;7.67;1.90;;;11.20;99.90;;;;;;4929744;29;20801;-70
2023/03/31 00:36:26;;;;;;;2.00;1.80;;;11.10;99.90;;;;;;4930500;29;21100;-70
2023/03/31 00:38:53;;;;;;;2.20;1.50;;;11.10;99.90;;;;;;4931287;29;20523;-70
2023/03/31 00:41:21;;;;;;;1.63;1.23;;;11.10;99.90;;;;;;4931143;29;20291;-70
2023/03/31 00:44:09;;;;;;;2.80;1.37;;;11.00;99.90;;;;;;4931024;29;20912;-70
2023/03/31 00:46:40;;;;;;;1.83;1.30;;;11.00;99.90;;;;;;4930621;29;20291;-70
2023/03/31 00:49:15;;;;;;;2.07;1.53;;;11.00;99.90;;;;;;4930473;29;20689;-70
2023/03/31 00:51:43;;;;;;;2.47;1.50;;;10.90;99.90;;;;;;4931071;29;20250;-70
2023/03/31 00:54:11;;;;;;;2.63;1.30;;;10.90;99.90;;;;;;4930696;29;20287;-70
2023/03/31 00:56:42;;;;;;;3.10;1.50;;;10.90;99.90;;;;;;4930374;29;20212;-70
2023/03/31 00:59:12;;;;;;;2.23;1.30;;;10.80;99.90;;;;;;4930597;29;20201;-70
2023/03/31 01:01:41;;;;;;;2.40;1.53;;;10.90;99.90;;;;;;4930867;29;20299;-70
2023/03/31 01:04:09;;;;;;;3.70;1.53;;;10.90;99.90;;;;;;4929813;29;20208;-70
2023/03/31 01:06:45;;;;;;;2.07;1.40;;;10.90;99.90;;;;;;4929924;29;20299;-70
2023/03/31 01:09:13;;;;;;;5.13;1.20;;;10.90;99.90;;;;;;4929641;29;20243;-71
2023/03/31 01:11:40;;;;;;;3.07;1.80;;;10.80;99.90;;;;;;4930324;29;20208;-71
2023/03/31 01:14:08;;;;;;;1.87;1.37;;;10.80;99.90;;;;;;4929844;29;20322;-72
2023/03/31 01:16:38;;;;;;;2.33;1.33;;;10.80;99.90;;;;;;4929664;29;20793;-71
2023/03/31 01:19:07;;;;;;;2.90;1.60;;;10.80;99.90;;;;;;4929590;29;20216;-72
2023/03/31 01:22:09;;;;;;;4.00;1.70;;;10.70;99.90;;;;;;4930117;29;20579;-71
2023/03/31 01:25:18;;;;;;;2.27;1.20;;;10.60;99.90;;;;;;4929742;29;20247;-71
2023/03/31 01:28:11;;;;;;;3.43;1.40;;;10.60;99.90;;;;;;4930071;29;20593;-72
2023/03/31 01:31:17;;;;;;;2.83;1.43;;;10.60;99.90;;;;;;4929976;29;20759;-70
2023/03/31 01:34:28;;;;;;;1.97;1.10;;;10.60;99.90;;;;;;4929491;29;20196;-70
2023/03/31 01:37:20;;;;;;;2.27;1.13;;;10.60;99.90;;;;;;4916090;29;20971;-69
2023/03/31 01:40:23;;;;;;;1.87;1.10;;;10.50;99.90;;;;;;4929636;29;20209;-69
2023/03/31 01:42:55;;;;;;;2.17;1.30;;;10.50;99.90;;;;;;4922167;29;20218;-70
2023/03/31 01:45:33;;;;;;;4.27;1.47;;;10.50;99.90;;;;;;4929254;29;20214;-71
2023/03/31 01:48:07;;;;;;;2.27;1.40;;;10.50;99.90;;;;;;4928661;29;20208;-71
2023/03/31 01:50:41;;;;;;;6.43;1.33;;;10.50;99.90;;;;;;4925007;29;20192;-71
2023/03/31 01:53:16;;;;;;;1.70;1.03;;;10.50;99.90;;;;;;4929351;29;20196;-71
2023/03/31 01:55:48;;;;;;;1.17;0.93;;;10.60;99.90;;;;;;4929973;29;20290;-72
2023/03/31 01:58:21;;;;;;;2.93;1.40;;;10.50;99.90;;;;;;4911046;29;20275;-71
2023/03/31 02:00:55;;;;;;;3.93;1.30;;;10.60;99.90;;;;;;4910798;29;20674;-69
2023/03/31 02:03:28;;;;;;;4.07;1.40;;;10.60;99.90;;;;;;4929134;29;20706;-70
2023/03/31 02:05:59;;;;;;;2.97;1.13;;;10.50;99.90;;;;;;4928487;29;20220;-70
2023/03/31 02:08:31;;;;;;;2.90;1.20;;;10.50;99.90;;;;;;4929084;29;20224;-70
2023/03/31 02:10:59;;;;;;;3.50;1.40;;;10.50;99.90;;;;;;4928797;29;20633;-70
2023/03/31 02:13:29;;;;;;;3.67;1.27;;;10.60;99.90;;;;;;4928849;29;20319;-70
2023/03/31 02:16:00;;;;;;;1.33;1.03;;;10.50;99.90;;;;;;4928652;29;20825;-69
2023/03/31 02:18:32;;;;;;;1.33;1.23;;;10.60;99.90;;;;;;4928706;29;20216;-71
2023/03/31 02:21:00;;;;;;;1.57;1.00;;;10.50;99.90;;;;;;4909888;29;20207;-71
2023/03/31 02:23:30;;;;;;;2.77;1.00;;;10.60;99.90;;;;;;4909954;29;20292;-71
2023/03/31 02:26:02;;;;;;;3.10;1.23;;;10.60;99.90;;;;;;4920426;29;20200;-71
2023/03/31 02:28:31;;;;;;;1.50;1.10;;;10.60;99.90;;;;;;4928603;29;20314;-71
2023/03/31 02:31:13;;;;;;;2.43;1.20;;;10.60;99.90;;;;;;4928837;29;20294;-71
2023/03/31 02:33:40;;;;;;;1.70;0.80;;;10.60;99.90;;;;;;4929452;29;20296;-69
2023/03/31 02:36:07;;;;;;;1.87;1.00;;;10.60;99.90;;;;;;4928408;29;20219;-69
2023/03/31 02:38:39;;;;;;;1.87;1.30;;;10.70;99.90;;;;;;4928724;29;20678;-69
2023/03/31 02:41:06;;;;;;;3.23;1.30;;;10.70;99.90;;;;;;4928608;29;20231;-69
2023/03/31 02:43:34;;;;;;;3.37;1.27;;;10.60;99.90;;;;;;4928782;29;20290;-69
2023/03/31 02:46:01;;;;;;;3.07;1.40;;;10.60;99.90;;;;;;4928068;29;20247;-69
2023/03/31 02:48:33;;;;;;;1.50;0.80;;;10.60;99.90;;;;;;4928161;29;20661;-69
2023/03/31 02:51:30;;;;;;;2.27;1.20;;;10.60;99.90;;;;;;4928280;29;20204;-69
2023/03/31 02:54:18;;;;;;;1.70;1.27;;;10.70;99.90;;;;;;4927885;29;20666;-69
2023/03/31 02:57:00;;;;;;;1.13;0.83;;;10.70;99.90;;;;;;4921814;29;20295;-69
2023/03/31 02:59:41;;;;;;;5.27;1.50;;;10.70;99.90;;;;;;4924640;29;20289;-69
2023/03/31 03:02:17;;;;;;;2.90;1.30;;;10.70;99.90;;;;;;4927173;29;20674;-69
2023/03/31 03:05:11;;;;;;;3.70;1.33;;;10.80;99.90;;;;;;4928102;29;20311;-71
2023/03/31 03:07:46;;;;;;;1.37;1.07;;;10.70;99.90;;;;;;4928149;29;20302;-71
2023/03/31 03:10:20;;;;;;;3.57;1.10;;;10.80;99.90;;;;;;4928109;29;20220;-71
2023/03/31 03:12:55;;;;;;;3.47;1.40;;;10.80;99.90;;;;;;4928645;29;20676;-71
2023/03/31 03:15:28;;;;;;;2.40;1.20;;;10.70;99.90;;;;;;4928135;29;20327;-71
2023/03/31 03:17:56;;;;;;;1.67;1.10;;;10.80;99.90;;;;;;4928426;29;20664;-71
2023/03/31 03:20:23;;;;;;;2.10;1.20;;;10.80;99.90;;;;;;4924697;29;20208;-71
2023/03/31 03:22:50;;;;;;;1.90;0.93;;;10.80;99.90;;;;;;4928335;29;20295;-71
2023/03/31 03:25:19;;;;;;;3.23;1.17;;;10.80;99.90;;;;;;4928081;29;20323;-72
2023/03/31 03:27:46;;;;;;;1.77;1.00;;;10.70;99.90;;;;;;4928070;29;20222;-71
2023/03/31 03:30:16;;;;;;;1.10;1.00;;;10.80;99.90;;;;;;4928263;29;20240;-71
2023/03/31 03:32:45;;;;;;;4.10;1.20;;;10.80;99.90;;;;;;4927988;29;20276;-71
2023/03/31 03:35:12;;;;;;;1.00;0.90;;;10.80;99.90;;;;;;4927253;29;20208;-71
2023/03/31 03:37:39;;;;;;;4.67;1.20;;;10.80;99.90;;;;;;4928141;29;20298;-71
2023/03/31 03:40:07;;;;;;;2.13;1.10;;;10.70;99.90;;;;;;4927902;29;20251;-71
2023/03/31 03:42:35;;;;;;;2.00;1.00;;;10.80;99.90;;;;;;4928245;29;20218;-71
2023/03/31 03:45:02;;;;;;;4.07;1.37;;;10.70;99.90;;;;;;4927960;29;20316;-71
2023/03/31 03:47:29;;;;;;;1.73;1.20;;;10.70;99.90;;;;;;4928047;29;21021;-70
2023/03/31 03:49:57;;;;;;;2.87;1.10;;;10.80;99.90;;;;;;4927612;29;20338;-70
2023/03/31 03:52:24;;;;;;;1.70;1.20;;;10.80;99.90;;;;;;4928005;29;20623;-71
2023/03/31 03:54:51;;;;;;;2.23;1.00;;;10.80;99.90;;;;;;4928061;29;20299;-70
2023/03/31 03:57:18;;;;;;;2.90;1.33;;;10.80;99.90;;;;;;4926933;29;20308;-71
2023/03/31 03:59:45;;;;;;;3.90;1.17;;;10.80;99.90;;;;;;4928107;29;20327;-70
2023/03/31 04:02:12;;;;;;;1.40;1.07;;;10.80;99.90;;;;;;4927919;29;20292;-71
2023/03/31 04:04:39;;;;;;;2.03;1.20;;;10.80;99.90;;;;;;4927895;29;20214;-70
2023/03/31 04:07:07;;;;;;;3.43;1.27;;;10.80;99.90;;;;;;4927782;29;20309;-70
2023/03/31 04:09:34;;;;;;;4.63;1.50;;;10.80;99.90;;;;;;4927971;29;20228;-70
2023/03/31 04:12:01;;;;;;;3.17;1.23;;;10.70;99.90;;;;;;4930342;29;20293;-70
2023/03/31 04:14:28;;;;;;;1.43;1.20;;;10.70;99.90;;;;;;4931229;29;20323;-71
2023/03/31 04:16:55;;;;;;;1.57;1.10;;;10.70;99.90;;;;;;4930822;29;20346;-70
2023/03/31 04:19:24;;;;;;;2.13;1.20;;;10.70;99.90;;;;;;4927720;29;20720;-70
2023/03/31 04:22:01;;;;;;;2.93;1.00;;;10.60;99.90;;;;;;4931055;29;20212;-71
2023/03/31 04:24:31;;;;;;;4.77;1.30;;;10.70;99.90;;;;;;4930984;29;20208;-71
2023/03/31 04:26:59;;;;;;;2.80;1.20;;;10.70;99.90;;;;;;4930510;29;20204;-69
2023/03/31 04:29:26;;;;;;;2.53;0.90;;;10.70;99.90;;;;;;4930668;29;20246;-69
2023/03/31 04:31:57;;;;;;;3.93;1.30;;;10.70;99.90;;;;;;4930683;29;20295;-69
2023/03/31 04:34:33;;;;;;;3.70;1.43;;;10.70;99.90;;;;;;4930425;29;20200;-69
2023/03/31 04:37:01;;;;;;;1.20;1.10;;;10.60;99.90;;;;;;4930519;29;20267;-69
2023/03/31 04:39:30;;;;;;;3.60;1.60;;;10.70;99.90;;;;;;4930273;29;20682;-69
2023/03/31 04:41:58;;;;;;;3.97;1.33;;;10.60;99.90;;;;;;4930116;29;20809;-69
2023/03/31 04:44:25;;;;;;;1.67;0.87;;;10.60;99.90;;;;;;4930756;29;20299;-69
2023/03/31 04:46:52;;;;;;;2.97;1.13;;;10.60;99.90;;;;;;4930150;29;20319;-69
2023/03/31 04:49:18;;;;;;;4.17;1.30;;;10.70;99.90;;;;;;4920646;29;20262;-69
2023/03/31 04:51:45;;;;;;;2.93;1.10;;;10.60;99.90;;;;;;4911603;29;20324;-69
2023/03/31 04:54:12;;;;;;;1.93;1.40;;;10.60;99.90;;;;;;4926891;29;20248;-70
2023/03/31 04:56:40;;;;;;;2.27;1.40;;;10.70;99.90;;;;;;4930528;29;20813;-70
2023/03/31 04:59:08;;;;;;;3.50;1.40;;;10.60;99.90;;;;;;4930282;29;20210;-70
2023/03/31 05:01:35;;;;;;;2.83;1.50;;;10.60;99.90;;;;;;4930624;29;20212;-71
2023/03/31 05:04:02;;;;;;;3.17;1.33;;;10.50;99.90;;;;;;4929637;29;20702;-70
2023/03/31 05:06:32;;;;;;;1.47;0.97;;;10.50;99.90;;;;;;4929927;29;20216;-70
2023/03/31 05:08:59;;;;;;;2.33;1.20;;;10.50;99.90;;;;;;4916362;29;20296;-70
2023/03/31 05:11:26;;;;;;;1.97;1.17;;;10.50;99.90;;;;;;4911095;29;20221;-70
2023/03/31 05:13:54;;;;;;;5.37;1.33;;;10.50;99.90;;;;;;4910800;29;20343;-71
2023/03/31 05:16:21;;;;;;;4.37;1.13;;;10.50;99.90;;;;;;4922769;29;20798;-70
2023/03/31 05:18:48;;;;;;;3.10;1.00;;;10.50;99.90;;;;;;4929485;29;20216;-70
2023/03/31 05:21:17;;;;;;;1.73;1.33;;;10.50;99.90;;;;;;4929557;29;20272;-70
2023/03/31 05:23:44;;;;;;;4.87;1.13;;;10.50;99.90;;;;;;4928971;29;20259;-70
2023/03/31 05:26:12;;;;;;;1.63;1.27;;;10.50;99.90;;;;;;4930047;29;20260;-70
2023/03/31 05:28:40;;;;;;;1.73;1.40;;;10.40;99.90;;;;;;4929574;29;20734;-70
2023/03/31 05:31:10;;;;;;;6.57;4.17;;;10.40;99.90;;;;;;4929713;29;20243;-70
2023/03/31 05:33:40;;;;;;;3.13;2.30;;;10.40;99.90;;;;;;4911087;29;20280;-70
2023/03/31 05:36:08;;;;;;;5.00;4.50;;;10.40;99.90;;;;;;4910704;29;20237;-70
2023/03/31 05:38:35;;;;;;;4.37;3.33;;;10.40;99.90;;;;;;4913067;29;20579;-71
2023/03/31 05:41:02;;;;;;;5.83;1.50;;;10.40;99.90;;;;;;4929133;29;20204;-70
2023/03/31 05:43:29;;;;;;;2.97;1.57;;;10.50;99.90;;;;;;4929196;29;21051;-70
2023/03/31 05:45:56;;;;;;;3.97;1.90;;;10.50;99.90;;;;;;4929464;29;20735;-69
2023/03/31 05:48:24;;;;;;;4.70;2.77;;;10.50;99.90;;;;;;4929273;29;20302;-69
2023/03/31 05:50:51;;;;;;;8.77;7.73;;;10.60;99.90;;;;;;4929082;29;20236;-70
2023/03/31 05:53:18;;;;;;;9.13;6.70;;;10.60;99.90;;;;;;4929223;29;20298;-71
2023/03/31 05:55:45;;;;;;;6.73;4.53;;;10.60;99.90;;;;;;4929014;29;20251;-71
2023/03/31 05:58:12;;;;;;;9.53;5.83;;;10.60;99.90;;;;;;4929486;29;20212;-71
2023/03/31 06:00:39;;;;;;;5.03;1.90;;;10.60;99.90;;;;;;4929472;29;20318;-71
2023/03/31 06:03:06;;;;;;;4.57;1.60;;;10.60;99.90;;;;;;4929301;29;20738;-71
2023/03/31 06:05:36;;;;;;;2.77;1.30;;;10.60;99.90;;;;;;4929204;29;20646;-71
2023/03/31 06:08:03;;;;;;;2.47;1.27;;;10.70;99.90;;;;;;4929328;29;20283;-71
2023/03/31 06:10:34;;;;;;;4.63;1.73;;;10.70;99.90;;;;;;4929031;29;20751;-70
2023/03/31 06:13:01;;;;;;;5.17;1.40;;;10.70;99.90;;;;;;4928716;29;20287;-69
2023/03/31 06:15:28;;;;;;;2.70;1.30;;;10.80;99.90;;;;;;4928568;29;20319;-69
2023/03/31 06:17:55;;;;;;;2.20;1.30;;;10.70;99.90;;;;;;4928106;29;20741;-70
2023/03/31 06:20:22;;;;;;;7.17;1.80;;;10.80;99.90;;;;;;4919216;29;20738;-70
2023/03/31 06:22:50;;;;;;;2.10;1.37;;;10.80;99.90;;;;;;4928440;29;20717;-69
2023/03/31 06:25:17;;;;;;;3.47;1.70;;;10.80;99.90;;;;;;4928768;29;20307;-70
2023/03/31 06:27:44;;;;;;;7.13;1.50;;;10.80;99.90;;;;;;4928860;29;20307;-70
2023/03/31 06:30:12;;;;;;;6.03;2.13;;;10.80;99.90;;;;;;4928556;29;20287;-70
2023/03/31 06:32:39;;;;;;;2.33;1.40;;;10.80;99.90;;;;;;4929070;29;20319;-70
2023/03/31 06:35:06;;;;;;;4.30;1.50;;;10.80;99.90;;;;;;4928117;29;20303;-71
2023/03/31 06:37:33;;;;;;;3.50;1.40;;;10.90;99.90;;;;;;4929116;29;20319;-71
2023/03/31 06:40:01;;;;;;;3.07;1.47;;;10.90;99.90;;;;;;4928556;29;20302;-71
2023/03/31 06:42:28;;;;;;;5.07;1.50;;;10.90;99.90;;;;;;4928740;29;20678;-70
2023/03/31 06:44:55;;;;;;;3.37;1.37;;;10.90;99.90;;;;;;4928252;29;20212;-70
2023/03/31 06:47:22;;;;;;;2.90;1.40;;;11.00;99.90;;;;;;4928962;29;20239;-71
2023/03/31 06:49:49;;;;;;;4.90;1.53;;;11.00;99.90;;;;;;4928245;29;20326;-71
2023/03/31 06:52:16;;;;;;;3.27;1.70;;;11.00;99.90;;;;;;4928435;29;20268;-71
2023/03/31 06:54:43;;;;;;;2.70;1.53;;;11.10;99.90;;;;;;4928529;29;20302;-71
2023/03/31 06:57:11;;;;;;;3.40;1.30;;;11.10;99.90;;;;;;4918634;29;20257;-71
2023/03/31 06:59:38;;;;;;;2.93;1.67;;;11.10;99.90;;;;;;4910069;29;20317;-71
2023/03/31 07:02:05;;;;;;;2.77;1.20;;;11.10;99.90;;;;;;4927859;29;20243;-71
2023/03/31 07:04:32;;;;;;;3.07;1.47;;;11.20;99.90;;;;;;4928304;29;20314;-70
2023/03/31 07:06:59;;;;;;;2.90;1.47;;;11.30;99.90;;;;;;4928347;29;20348;-71
2023/03/31 07:09:26;;;;;;;4.40;1.37;;;11.30;99.90;;;;;;4928622;29;20800;-71
2023/03/31 07:11:53;;;;;;;3.27;1.67;;;11.30;99.90;;;;;;4928557;29;20603;-71
2023/03/31 07:14:22;;;;;;;5.17;1.50;;;11.40;99.90;;;;;;4928163;29;20250;-71
2023/03/31 07:16:49;;;;;;;3.70;1.87;;;11.40;99.90;;;;;;4927973;29;20248;-71
2023/03/31 07:19:16;;;;;;;3.90;1.67;;;11.50;99.90;;;;;;4918940;29;20686;-71
2023/03/31 07:21:43;;;;;;;3.73;1.70;;;11.50;99.90;;;;;;4926868;29;20302;-71
2023/03/31 07:24:10;;;;;;;6.03;1.60;;;11.50;99.90;;;;;;4927877;29;20204;-71
2023/03/31 07:26:37;;;;;;;2.97;1.63;;;11.60;99.90;;;;;;4928018;29;20484;-70
2023/03/31 07:29:04;;;;;;;6.00;1.73;;;11.60;99.90;;;;;;4928289;29;20302;-70
2023/03/31 07:31:32;;;;;;;3.13;1.20;;;11.60;99.90;;;;;;4927777;29;20424;-71
2023/03/31 07:34:00;;;;;;;3.23;1.40;;;11.60;99.90;;;;;;4927802;29;20299;-71
2023/03/31 07:36:27;;;;;;;1.43;0.90;;;11.60;99.90;;;;;;4928038;29;20299;-71
2023/03/31 07:38:54;;;;;;;5.07;2.00;;;11.70;99.90;;;;;;4927853;29;20291;-71
2023/03/31 07:41:22;;;;;;;3.83;1.90;;;11.70;99.90;;;;;;4930473;29;20214;-70
2023/03/31 07:43:50;;;;;;;1.90;1.27;;;11.80;99.90;;;;;;4926847;28;20302;-70
2023/03/31 07:46:20;;;;;;;2.67;1.50;;;11.90;99.90;;;;;;4923573;29;20864;-72
2023/03/31 07:48:49;;;;;;;2.50;1.47;;;12.00;99.90;;;;;;4931586;29;20291;-71
2023/03/31 07:51:19;;;;;;;4.43;1.53;;;12.10;99.90;;;;;;4931582;29;20322;-71
2023/03/31 07:53:48;;;;;;;3.73;1.47;;;12.20;99.90;;;;;;4931557;29;20212;-71
2023/03/31 07:56:16;;;;;;;4.50;1.73;;;12.30;99.90;;;;;;4931317;29;20432;-70
2023/03/31 07:58:44;;;;;;;3.77;1.53;;;12.40;99.90;;;;;;4931030;29;20216;-70
2023/03/31 08:01:15;;;;;;;4.47;1.50;;;12.50;99.90;;;;;;4931488;29;20212;-70
2023/03/31 08:03:42;;;;;;;5.03;1.40;;;12.50;99.90;;;;;;4931574;29;20204;-70
2023/03/31 08:06:12;;;;;;;2.03;1.17;;;12.60;99.90;;;;;;4931386;29;20291;-71
2023/03/31 08:08:41;;;;;;;4.93;1.30;;;12.60;99.90;;;;;;4931134;29;20299;-70
2023/03/31 08:11:09;;;;;;;4.30;1.60;;;12.60;99.90;;;;;;4930829;29;20728;-70
2023/03/31 08:13:35;;;;;;;2.63;1.23;;;12.70;99.90;;;;;;4930855;29;20666;-70
2023/03/31 08:16:03;;;;;;;4.87;1.40;;;12.70;99.90;;;;;;4930593;29;20324;-70
2023/03/31 08:18:30;;;;;;;6.30;1.50;;;12.80;99.90;;;;;;4931223;29;20615;-70
2023/03/31 08:20:57;;;;;;;3.70;1.40;;;12.80;99.90;;;;;;4931040;29;20216;-70
2023/03/31 08:23:25;;;;;;;2.97;1.53;;;12.90;99.90;;;;;;4931110;29;20220;-69
2023/03/31 08:25:52;;;;;;;4.70;3.00;;;13.00;99.90;;;;;;4930678;29;20299;-69
2023/03/31 08:28:19;;;;;;;3.07;1.50;;;13.00;99.90;;;;;;4930821;29;20323;-70
2023/03/31 08:30:46;;;;;;;2.73;1.00;;;13.00;99.90;;;;;;4930611;29;20323;-70
2023/03/31 08:33:13;;;;;;;4.33;1.70;;;13.10;99.90;;;;;;4928951;29;20223;-70
2023/03/31 08:35:40;;;;;;;2.30;1.37;;;13.10;99.90;;;;;;4930693;29;20302;-71
2023/03/31 08:38:07;;;;;;;5.23;1.50;;;13.10;99.90;;;;;;4936700;29;20247;-70
2023/03/31 08:40:36;;;;;;;4.47;1.80;;;13.10;99.90;;;;;;4936191;28;20212;-70
2023/03/31 08:43:08;;;;;;;3.63;1.43;;;13.00;99.90;;;;;;4929915;29;20208;-71
2023/03/31 08:45:38;;;;;;;3.47;1.60;;;13.00;99.90;;;;;;4929966;29;20224;-71
2023/03/31 08:48:10;;;;;;;3.83;2.07;;;13.10;99.90;;;;;;4929073;29;20712;-72
2023/03/31 08:50:44;;;;;;;5.27;1.87;;;13.10;99.90;;;;;;4909465;29;20667;-72
2023/03/31 08:53:20;;;;;;;2.53;2.03;;;13.20;99.90;;;;;;4916711;29;20322;-71
2023/03/31 08:55:51;;;;;;;4.13;1.60;;;13.20;99.90;;;;;;4928718;29;20318;-72
2023/03/31 08:58:32;;;;;;;3.33;1.40;;;13.20;99.90;;;;;;4928402;29;20771;-71
2023/03/31 09:01:07;;;;;;;3.87;1.53;;;13.30;99.90;;;;;;4928817;29;20276;-71
2023/03/31 09:03:43;;;;;;;1.97;1.37;;;13.30;99.90;;;;;;4928923;29;20214;-71
2023/03/31 09:06:14;;;;;;;2.67;1.30;;;13.40;99.90;;;;;;4928868;29;20204;-71
2023/03/31 09:08:42;;;;;;;2.77;1.60;;;13.50;99.90;;;;;;4929096;29;20208;-71
2023/03/31 09:11:18;;;;;;;3.90;1.40;;;13.50;99.90;;;;;;4928548;29;20240;-71
2023/03/31 09:14:05;;;;;;;2.70;1.53;;;13.60;99.90;;;;;;4928541;29;20789;-71
2023/03/31 09:16:38;;;;;;;4.53;1.30;;;13.70;99.90;;;;;;4928593;29;20250;-71
2023/03/31 09:19:15;;;;;;;5.53;1.60;;;13.70;99.90;;;;;;4928097;29;20718;-71
2023/03/31 09:21:46;;;;;;;3.47;1.40;;;13.70;99.90;;;;;;4927778;29;20590;-71
2023/03/31 09:24:19;;;;;;;5.60;1.70;;;13.70;99.90;;;;;;4927652;29;20212;-71
2023/03/31 09:26:52;;;;;;;2.77;1.77;;;13.80;99.90;;;;;;4929576;29;20216;-71
2023/03/31 09:29:23;;;;;;;3.50;1.20;;;13.80;99.90;;;;;;4929605;29;20204;-71
2023/03/31 09:31:50;;;;;;;3.30;1.53;;;13.90;99.90;;;;;;4929292;29;20232;-71
2023/03/31 09:34:23;;;;;;;3.33;1.57;;;13.90;99.90;;;;;;4928990;29;20306;-71
2023/03/31 09:36:51;;;;;;;2.93;1.37;;;13.80;99.90;;;;;;4929484;29;20208;-71
2023/03/31 09:39:18;;;;;;;3.70;1.37;;;13.80;99.90;;;;;;4928096;29;20702;-71
2023/03/31 09:41:49;;;;;;;3.90;1.17;;;13.80;99.90;;;;;;4929548;29;20319;-71
2023/03/31 09:44:24;;;;;;;2.77;1.27;;;13.80;99.90;;;;;;4929467;29;20323;-71
2023/03/31 09:46:52;;;;;;;2.83;1.13;;;13.80;99.90;;;;;;4929074;29;20287;-70
2023/03/31 09:49:22;;;;;;;4.47;1.30;;;13.80;99.90;;;;;;4928298;29;20303;-69
2023/03/31 09:52:02;;;;;;;3.87;1.70;;;13.70;99.90;;;;;;4928244;29;20428;-69
2023/03/31 09:54:37;;;;;;;3.87;1.30;;;13.70;99.90;;;;;;4928286;29;20204;-69
2023/03/31 09:57:14;;;;;;;6.23;1.67;;;13.60;99.90;;;;;;4927473;29;20662;-69
2023/03/31 09:59:42;;;;;;;4.00;1.40;;;13.60;99.90;;;;;;4918679;29;20307;-69
2023/03/31 10:02:29;;;;;;;4.13;1.40;;;13.60;99.90;;;;;;4928650;29;20227;-69
2023/03/31 10:04:56;;;;;;;2.50;1.57;;;13.50;99.90;;;;;;4928184;29;20212;-69
2023/03/31 10:07:25;;;;;;;4.57;1.60;;;13.50;99.90;;;;;;4928776;29;20278;-69
2023/03/31 10:09:52;;;;;;;2.97;1.33;;;13.50;99.90;;;;;;4927802;29;20241;-69
2023/03/31 10:12:24;;;;;;;2.17;1.20;;;13.40;99.90;;;;;;4928247;29;20335;-69
2023/03/31 10:14:52;;;;;;;1.60;1.10;;;13.40;99.90;;;;;;4927791;29;20679;-69
2023/03/31 10:17:21;;;;;;;4.40;1.20;;;13.30;99.90;;;;;;4928149;29;20306;-69
2023/03/31 10:19:49;;;;;;;2.50;1.40;;;13.30;99.90;;;;;;4927964;29;20223;-69
2023/03/31 10:22:27;;;;;;;3.40;1.70;;;13.30;99.90;;;;;;4928101;29;20243;-69
2023/03/31 10:25:07;;;;;;;3.27;1.60;;;13.40;99.90;;;;;;4927956;29;20307;-69
2023/03/31 10:27:36;;;;;;;2.87;1.37;;;13.40;99.90;;;;;;4928023;29;20287;-69
2023/03/31 10:30:08;;;;;;;3.03;1.20;;;13.50;99.90;;;;;;4927590;29;20211;-69
2023/03/31 10:32:40;;;;;;;1.90;1.27;;;13.50;99.90;;;;;;4928193;29;20355;-69
2023/03/31 10:35:14;;;;;;;1.97;1.47;;;13.60;99.90;;;;;;4927667;29;20572;-69
2023/03/31 10:37:41;;;;;;;2.10;1.60;;;13.60;99.90;;;;;;4928294;29;20200;-69
2023/03/31 10:40:15;;;;;;;5.83;3.90;;;13.60;99.90;;;;;;4927897;29;20591;-69
2023/03/31 10:42:47;;;;;;;4.17;2.20;;;13.50;99.90;;;;;;4928307;29;20204;-69
2023/03/31 10:45:25;;;;;;;2.50;1.70;;;13.50;99.90;;;;;;4928053;29;20904;-69
2023/03/31 10:47:55;;;;;;;4.37;2.50;;;13.50;99.90;;;;;;4927935;29;20239;-69
2023/03/31 10:50:27;;;;;;;2.00;1.40;;;13.50;99.90;;;;;;4924657;29;20251;-69
2023/03/31 10:53:02;;;;;;;1.53;1.20;;;13.50;99.90;;;;;;4927639;29;20238;-69
2023/03/31 10:55:36;;;;;;;2.87;1.30;;;13.40;99.90;;;;;;4928209;29;20203;-69
2023/03/31 10:58:14;;;;;;;2.13;1.10;;;13.40;99.90;;;;;;4908626;29;20201;-69
2023/03/31 11:01:01;;;;;;;2.67;1.23;;;13.40;99.90;;;;;;4909320;29;20324;-69
2023/03/31 11:04:00;;;;;;;3.40;1.23;;;13.50;99.90;;;;;;4909111;29;20224;-69
2023/03/31 11:06:33;;;;;;;3.27;1.13;;;13.60;99.90;;;;;;4883715;29;20308;-69
2023/03/31 11:09:15;;;;;;;2.20;1.23;;;13.70;99.90;;;;;;4908989;29;20221;-69
2023/03/31 11:12:01;;;;;;;1.33;0.80;;;13.80;99.90;;;;;;4908897;29;20328;-69
2023/03/31 11:14:38;;;;;;;2.00;1.27;;;13.90;99.90;;;;;;4909056;29;20309;-69
2023/03/31 11:17:12;;;;;;;2.47;1.37;;;13.90;99.90;;;;;;4908590;29;20600;-69
2023/03/31 11:19:47;;;;;;;1.67;1.03;;;14.00;99.90;;;;;;4908530;29;20241;-69
2023/03/31 11:22:24;;;;;;;1.97;1.03;;;14.10;99.90;;;;;;4920245;29;20271;-69
2023/03/31 11:25:19;;;;;;;3.63;1.20;;;14.20;99.90;;;;;;4931137;29;20212;-69
2023/03/31 11:28:20;;;;;;;3.20;1.40;;;14.30;99.90;;;;;;4906613;29;20336;-69
2023/03/31 11:30:54;;;;;;;2.43;1.40;;;14.40;99.90;;;;;;4926744;29;20682;-69
2023/03/31 11:33:50;;;;;;;2.33;1.50;;;14.40;99.90;;;;;;4930001;29;20319;-68
2023/03/31 11:36:32;;;;;;;2.67;1.40;;;14.40;99.90;;;;;;4929950;29;20228;-68
2023/03/31 11:39:12;;;;;;;4.70;2.80;;;14.40;99.90;;;;;;4929648;29;20323;-68
2023/03/31 11:41:44;;;;;;;3.73;2.50;;;14.30;99.90;;;;;;4930263;29;20231;-68
2023/03/31 11:44:13;;;;;;;6.77;2.87;;;14.20;99.90;;;;;;4930082;29;20671;-69
2023/03/31 11:46:48;;;;;;;10.33;6.17;;;14.10;99.90;;;;;;4930347;29;20299;-69
2023/03/31 11:49:20;;;;;;;5.30;2.40;;;14.00;99.90;;;;;;4920824;29;20299;-69
2023/03/31 11:51:51;;;;;;;4.33;2.83;;;13.90;99.90;;;;;;4927169;29;20224;-69
2023/03/31 11:54:24;;;;;;;4.80;1.73;;;13.80;99.90;;;;;;4930090;29;20195;-69
2023/03/31 11:56:52;;;;;;;5.27;3.03;;;13.70;99.90;;;;;;4926263;29;20280;-74
2023/03/31 11:59:22;;;;;;;5.87;3.53;;;13.60;99.90;;;;;;4929658;29;20217;-69
2023/03/31 12:01:57;;;;;;;3.17;1.63;;;13.50;99.90;;;;;;4929812;29;20268;-69
2023/03/31 12:04:32;;;;;;;3.83;1.37;;;13.30;99.90;;;;;;4929778;29;20669;-69
2023/03/31 12:07:05;;;;;;;6.03;2.00;;;13.20;99.90;;;;;;4929993;29;20271;-69
2023/03/31 12:09:38;;;;;;;3.57;1.67;;;13.20;99.90;;;;;;4929615;29;20651;-69
2023/03/31 12:12:10;;;;;;;2.77;1.63;;;13.20;99.90;;;;;;4929400;29;20649;-69
2023/03/31 12:14:42;;;;;;;2.40;1.43;;;13.30;99.90;;;;;;4929015;29;20208;-69
2023/03/31 12:17:13;;;;;;;1.63;1.00;;;13.40;99.90;;;;;;4928655;29;20277;-69
2023/03/31 12:19:47;;;;;;;1.80;1.20;;;13.60;99.90;;;;;;4929047;29;20228;-69
2023/03/31 12:22:17;;;;;;;2.73;1.30;;;13.70;99.90;;;;;;4928410;29;20962;-69
2023/03/31 12:24:45;;;;;;;2.80;1.67;;;13.90;99.90;;;;;;4947883;29;20720;-69
2023/03/31 12:27:17;;;;;;;1.83;1.70;;;13.90;99.90;;;;;;4948482;28;20208;-69
2023/03/31 12:29:48;;;;;;;1.53;1.37;;;14.00;99.90;;;;;;4938667;28;20317;-69
2023/03/31 12:32:20;;;;;;;3.40;1.70;;;14.10;99.90;;;;;;4928086;28;20303;-69
2023/03/31 12:34:53;;;;;;;3.27;1.63;;;14.10;99.90;;;;;;4929196;29;20197;-69
2023/03/31 12:37:54;;;;;;;2.53;1.70;;;14.10;99.90;;;;;;4928587;29;20203;-69
2023/03/31 12:40:34;;;;;;;2.40;1.70;;;14.10;99.90;;;;;;4929342;29;20299;-69
2023/03/31 12:43:26;;;;;;;3.27;1.53;;;14.10;99.90;;;;;;4930506;29;20200;-69
2023/03/31 12:46:01;;;;;;;3.40;1.80;;;14.00;99.90;;;;;;4923936;29;20283;-69
2023/03/31 12:48:43;;;;;;;3.10;1.63;;;14.00;99.90;;;;;;4927770;29;20208;-69
2023/03/31 12:51:31;;;;;;;2.50;1.33;;;13.80;99.90;;;;;;4927195;29;20246;-69
2023/03/31 12:54:15;;;;;;;2.50;1.70;;;13.70;99.90;;;;;;4923561;29;20200;-69
2023/03/31 12:57:15;;;;;;;2.43;1.30;;;13.60;99.90;;;;;;4929294;29;20201;-69
2023/03/31 12:59:43;;;;;;;1.27;1.17;;;13.40;99.90;;;;;;4929060;29;20204;-70
2023/03/31 13:02:24;;;;;;;2.70;1.50;;;13.40;99.90;;;;;;4929610;29;20721;-69
2023/03/31 13:04:53;;;;;;;2.57;1.67;;;13.10;99.90;;;;;;4927744;29;20207;-69
2023/03/31 13:07:39;;;;;;;2.37;1.30;;;13.00;99.90;;;;;;4929600;29;20208;-69
2023/03/31 13:10:26;;;;;;;1.57;1.47;;;12.90;99.90;;;;;;4929409;29;20299;-69
2023/03/31 13:13:03;;;;;;;2.60;1.40;;;12.80;99.90;;;;;;4928908;29;20318;-69